createdAt,value
2022-08-08T00:00:52.965Z,1.30
2022-08-08T00:03:47.410Z,1.30
2022-08-08T00:07:25.633Z,1.20
2022-08-08T00:10:46.358Z,1.48
2022-08-08T00:14:16.922Z,1.20
2022-08-08T00:17:58.656Z,1.33
2022-08-08T00:21:07.866Z,1.40
2022-08-08T00:24:18.765Z,0.95
2022-08-08T00:27:34.795Z,1.62
2022-08-08T00:30:45.172Z,1.58
2022-08-08T00:34:50.767Z,1.25
2022-08-08T00:38:02.815Z,1.27
2022-08-08T00:41:45.223Z,1.58
2022-08-08T00:45:48.162Z,1.23
2022-08-08T00:49:03.558Z,1.48
2022-08-08T00:52:51.650Z,1.77
2022-08-08T00:56:12.959Z,1.70
2022-08-08T00:59:53.747Z,1.70
2022-08-08T01:03:57.271Z,1.42
2022-08-08T01:06:51.788Z,1.80
2022-08-08T01:10:24.812Z,1.65
2022-08-08T01:13:53.024Z,1.50
2022-08-08T01:17:20.352Z,1.60
2022-08-08T01:20:56.327Z,1.55
2022-08-08T01:24:19.016Z,2.30
2022-08-08T01:27:59.422Z,1.65
2022-08-08T01:32:15.208Z,1.62
2022-08-08T01:35:29.723Z,1.98
2022-08-08T01:38:46.295Z,2.00
2022-08-08T01:41:58.002Z,1.83
2022-08-08T01:45:27.463Z,2.25
2022-08-08T01:48:40.077Z,1.92
2022-08-08T01:53:15.054Z,1.65
2022-08-08T01:56:30.642Z,1.60
2022-08-08T02:00:02.244Z,1.52
2022-08-08T02:03:57.744Z,1.80
2022-08-08T02:07:11.015Z,1.37
2022-08-08T02:10:44.647Z,1.67
2022-08-08T02:14:08.411Z,1.80
2022-08-08T02:17:22.440Z,1.50
2022-08-08T02:21:00.891Z,1.62
2022-08-08T02:24:07.922Z,1.45
2022-08-08T02:27:18.763Z,1.40
2022-08-08T02:30:29.556Z,1.50
2022-08-08T02:34:08.721Z,1.75
2022-08-08T02:37:51.215Z,1.60
2022-08-08T02:42:04.130Z,2.12
2022-08-08T02:45:18.725Z,1.80
2022-08-08T02:48:32.635Z,1.67
2022-08-08T02:52:11.499Z,1.98
2022-08-08T02:56:26.952Z,1.67
2022-08-08T03:00:01.603Z,1.55
2022-08-08T03:05:04.906Z,1.85
2022-08-08T03:07:58.393Z,1.70
2022-08-08T03:12:01.498Z,1.40
2022-08-08T03:15:58.629Z,1.85
2022-08-08T03:18:54.239Z,1.55
2022-08-08T03:21:59.879Z,1.55
2022-08-08T03:25:14.604Z,2.35
2022-08-08T03:28:26.457Z,1.87
2022-08-08T03:32:06.721Z,1.90
2022-08-08T03:35:10.382Z,1.80
2022-08-08T03:38:58.562Z,1.67
2022-08-08T03:42:12.391Z,1.87
2022-08-08T03:45:00.093Z,1.50
2022-08-08T03:48:09.308Z,1.70
2022-08-08T03:51:35.439Z,1.87
2022-08-08T03:55:01.499Z,1.40
2022-08-08T03:58:34.700Z,1.80
2022-08-08T04:05:04.564Z,1.80
2022-08-08T04:08:33.346Z,1.48
2022-08-08T04:11:57.864Z,1.80
2022-08-08T04:15:06.483Z,1.52
2022-08-08T04:18:16.563Z,1.77
2022-08-08T04:21:23.301Z,2.17
2022-08-08T04:24:29.633Z,2.20
2022-08-08T04:28:01.615Z,1.60
2022-08-08T04:30:57.689Z,2.72
2022-08-08T04:34:00.296Z,1.73
2022-08-08T04:37:03.896Z,1.60
2022-08-08T04:40:12.321Z,1.80
2022-08-08T04:43:18.221Z,3.22
2022-08-08T04:46:25.195Z,1.70
2022-08-08T04:50:00.391Z,1.98
2022-08-08T04:53:00.873Z,1.98
2022-08-08T04:56:07.770Z,1.87
2022-08-08T04:59:10.745Z,1.62
2022-08-08T05:02:13.836Z,2.12
2022-08-08T05:05:20.331Z,1.87
2022-08-08T05:08:31.107Z,5.30
2022-08-08T05:11:39.050Z,2.20
2022-08-08T05:14:42.597Z,1.87
2022-08-08T05:17:54.146Z,1.67
2022-08-08T05:20:58.915Z,3.22
2022-08-08T05:24:04.324Z,2.07
2022-08-08T05:27:11.311Z,1.77
2022-08-08T05:30:13.540Z,1.80
2022-08-08T05:33:16.932Z,1.58
2022-08-08T05:36:28.241Z,1.80
2022-08-08T05:39:34.969Z,1.98
2022-08-08T05:42:43.674Z,2.20
2022-08-08T05:45:54.955Z,2.10
2022-08-08T05:48:58.706Z,2.10
2022-08-08T05:52:03.441Z,2.20
2022-08-08T05:55:14.303Z,2.15
2022-08-08T05:58:19.991Z,1.70
2022-08-08T06:01:51.751Z,2.28
2022-08-08T06:04:56.115Z,2.03
2022-08-08T06:08:02.679Z,1.95
2022-08-08T06:11:13.325Z,2.57
2022-08-08T06:14:20.366Z,3.10
2022-08-08T06:17:32.234Z,2.00
2022-08-08T06:20:56.264Z,1.95
2022-08-08T06:24:05.157Z,3.20
2022-08-08T06:27:22.680Z,3.00
2022-08-08T06:30:28.535Z,2.17
2022-08-08T06:34:27.698Z,3.55
2022-08-08T06:37:24.960Z,2.37
2022-08-08T06:40:32.061Z,1.55
2022-08-08T06:43:37.273Z,2.17
2022-08-08T06:46:39.923Z,1.80
2022-08-08T06:49:55.144Z,2.20
2022-08-08T06:53:09.811Z,1.85
2022-08-08T06:56:23.105Z,1.90
2022-08-08T06:59:27.154Z,1.60
2022-08-08T07:02:45.388Z,1.90
2022-08-08T07:06:01.969Z,1.52
2022-08-08T07:09:17.722Z,2.62
2022-08-08T07:12:37.671Z,1.85
2022-08-08T07:16:06.323Z,1.42
2022-08-08T07:19:30.618Z,1.62
2022-08-08T07:22:37.018Z,1.95
2022-08-08T07:25:44.118Z,1.35
2022-08-08T07:28:58.731Z,1.40
2022-08-08T07:32:10.085Z,1.67
2022-08-08T07:35:14.055Z,1.60
2022-08-08T07:38:20.902Z,2.03
2022-08-08T07:41:30.086Z,1.42
2022-08-08T07:44:52.797Z,1.60
2022-08-08T07:47:58.431Z,1.65
2022-08-08T07:51:04.283Z,1.80
2022-08-08T07:54:26.982Z,1.70
2022-08-08T07:57:54.924Z,2.47
2022-08-08T08:01:11.427Z,2.28
2022-08-08T08:04:16.488Z,1.67
2022-08-08T08:07:26.804Z,1.52
2022-08-08T08:10:38.372Z,1.48
2022-08-08T08:14:07.817Z,1.90
2022-08-08T08:17:18.394Z,1.60
2022-08-08T08:20:21.893Z,1.58
2022-08-08T08:23:41.118Z,2.53
2022-08-08T08:26:46.791Z,1.58
2022-08-08T08:29:55.704Z,1.98
2022-08-08T08:32:59.993Z,2.03
2022-08-08T08:36:20.418Z,1.58
2022-08-08T08:39:23.995Z,1.52
2022-08-08T08:42:29.364Z,2.00
2022-08-08T08:45:38.408Z,1.67
2022-08-08T08:48:49.182Z,2.30
2022-08-08T08:51:54.025Z,1.90
2022-08-08T08:54:59.875Z,2.10
2022-08-08T08:58:05.723Z,2.17
2022-08-08T09:01:17.484Z,1.98
2022-08-08T09:04:32.176Z,2.10
2022-08-08T09:07:52.154Z,2.53
2022-08-08T09:11:09.647Z,2.40
2022-08-08T09:14:13.051Z,2.65
2022-08-08T09:17:19.165Z,2.35
2022-08-08T09:22:01.644Z,2.05
2022-08-08T09:23:48.414Z,2.00
2022-08-08T09:30:04.263Z,3.40
2022-08-08T09:34:14.794Z,2.65
2022-08-08T09:36:39.184Z,1.87
2022-08-08T09:39:59.704Z,2.30
2022-08-08T09:43:24.190Z,2.80
2022-08-08T09:46:45.185Z,2.62
2022-08-08T09:50:03.958Z,2.67
2022-08-08T09:53:31.851Z,2.60
2022-08-08T09:56:41.446Z,2.92
2022-08-08T10:00:27.597Z,2.70
2022-08-08T10:03:19.875Z,2.40
2022-08-08T10:06:29.452Z,2.05
2022-08-08T10:09:42.297Z,2.65
2022-08-08T10:12:57.665Z,2.53
2022-08-08T10:16:09.176Z,2.20
2022-08-08T10:19:11.704Z,2.62
2022-08-08T10:22:17.538Z,3.20
2022-08-08T10:25:22.063Z,3.50
2022-08-08T10:28:25.960Z,3.40
2022-08-08T10:31:51.775Z,3.62
2022-08-08T10:35:01.354Z,2.92
2022-08-08T10:38:07.965Z,4.28
2022-08-08T10:41:16.890Z,4.00
2022-08-08T10:44:35.817Z,5.00
2022-08-08T10:47:43.128Z,3.17
2022-08-08T10:50:46.635Z,4.78
2022-08-08T10:53:57.971Z,4.40
2022-08-08T10:57:05.435Z,5.05
2022-08-08T11:00:10.867Z,3.90
2022-08-08T11:03:16.457Z,4.28
2022-08-08T11:06:18.843Z,4.57
2022-08-08T11:09:22.880Z,4.45
2022-08-08T11:12:25.207Z,4.07
2022-08-08T11:15:31.280Z,4.00
2022-08-08T11:18:36.065Z,3.50
2022-08-08T11:21:55.715Z,3.42
2022-08-08T11:25:01.282Z,5.07
2022-08-08T11:28:04.199Z,4.93
2022-08-08T11:31:09.457Z,5.37
2022-08-08T11:34:23.477Z,5.28
2022-08-08T11:38:34.677Z,5.05
2022-08-08T11:40:56.996Z,5.25
2022-08-08T11:44:00.471Z,3.17
2022-08-08T11:47:03.594Z,2.42
2022-08-08T11:50:23.537Z,2.50
2022-08-08T11:53:26.952Z,2.78
2022-08-08T11:56:34.594Z,3.08
2022-08-08T11:59:58.763Z,3.10
2022-08-08T12:03:20.861Z,3.30
2022-08-08T12:06:24.305Z,3.60
2022-08-08T12:09:29.123Z,3.50
2022-08-08T12:13:05.407Z,3.03
2022-08-08T12:16:12.983Z,3.40
2022-08-08T12:19:21.982Z,3.45
2022-08-08T12:22:58.846Z,3.28
2022-08-08T12:26:10.318Z,3.17
2022-08-08T12:29:40.068Z,3.28
2022-08-08T12:32:48.064Z,3.87
2022-08-08T12:35:52.847Z,5.07
2022-08-08T12:38:55.879Z,3.35
2022-08-08T12:42:01.786Z,3.80
2022-08-08T12:45:53.977Z,3.28
2022-08-08T12:48:37.485Z,3.70
2022-08-08T12:51:49.775Z,3.33
2022-08-08T12:55:13.593Z,3.15
2022-08-08T12:58:19.691Z,3.37
2022-08-08T13:01:38.252Z,3.47
2022-08-08T13:04:51.079Z,2.83
2022-08-08T13:08:02.888Z,3.63
2022-08-08T13:11:17.151Z,3.87
2022-08-08T13:14:20.547Z,3.10
2022-08-08T13:18:07.873Z,3.55
2022-08-08T13:20:51.035Z,3.80
2022-08-08T13:23:56.038Z,2.78
2022-08-08T13:27:03.701Z,3.20
2022-08-08T13:30:06.727Z,3.17
2022-08-08T13:33:08.877Z,4.05
2022-08-08T13:36:11.239Z,3.87
2022-08-08T13:39:17.588Z,4.15
2022-08-08T13:42:22.612Z,4.57
2022-08-08T13:45:27.394Z,4.95
2022-08-08T13:48:43.177Z,4.15
2022-08-08T13:51:58.690Z,3.78
2022-08-08T13:55:06.189Z,4.18
2022-08-08T13:58:19.925Z,4.03
2022-08-08T14:01:23.418Z,3.37
2022-08-08T14:05:04.842Z,4.72
2022-08-08T14:08:16.760Z,3.85
2022-08-08T14:11:33.931Z,5.80
2022-08-08T14:14:42.806Z,3.80
2022-08-08T14:18:35.090Z,3.97
2022-08-08T14:21:20.977Z,2.97
2022-08-08T14:24:34.635Z,3.97
2022-08-08T14:27:40.596Z,2.83
2022-08-08T14:30:47.633Z,4.07
2022-08-08T14:33:57.417Z,4.53
2022-08-08T14:37:06.375Z,3.60
2022-08-08T14:40:18.275Z,2.80
2022-08-08T14:44:02.602Z,3.55
2022-08-08T14:46:57.910Z,3.22
2022-08-08T14:50:10.237Z,3.40
2022-08-08T14:53:17.220Z,3.28
2022-08-08T14:56:19.699Z,3.30
2022-08-08T14:59:43.929Z,3.47
2022-08-08T15:02:59.225Z,3.62
2022-08-08T15:06:16.460Z,3.40
2022-08-08T15:09:19.465Z,3.10
2022-08-08T15:12:27.626Z,4.05
2022-08-08T15:16:02.677Z,3.58
2022-08-08T15:18:52.937Z,3.53
2022-08-08T15:21:55.499Z,2.60
2022-08-08T15:25:00.021Z,3.08
2022-08-08T15:28:33.353Z,3.25
2022-08-08T15:31:55.983Z,3.58
2022-08-08T15:34:49.130Z,3.47
2022-08-08T15:37:51.991Z,3.28
2022-08-08T15:40:55.644Z,3.25
2022-08-08T15:44:01.031Z,3.20
2022-08-08T15:47:16.047Z,3.85
2022-08-08T15:50:21.203Z,2.92
2022-08-08T15:53:27.549Z,3.70
2022-08-08T15:56:35.493Z,3.45
2022-08-08T16:00:18.261Z,3.05
2022-08-08T16:03:01.427Z,4.10
2022-08-08T16:06:06.188Z,3.53
2022-08-08T16:13:07.815Z,3.95
2022-08-08T16:13:21.206Z,2.70
2022-08-08T16:16:12.851Z,3.15
2022-08-08T16:19:23.509Z,3.75
2022-08-08T16:22:30.339Z,3.30
2022-08-08T16:25:46.374Z,3.45
2022-08-08T16:28:56.025Z,3.60
2022-08-08T16:31:58.470Z,3.20
2022-08-08T16:35:03.438Z,3.40
2022-08-08T16:41:20.396Z,3.35
2022-08-08T16:44:27.951Z,2.92
2022-08-08T16:47:42.310Z,2.37
2022-08-08T16:50:45.122Z,2.67
2022-08-08T16:55:03.837Z,2.70
2022-08-08T16:58:10.654Z,2.37
2022-08-08T17:00:34.450Z,2.65
2022-08-08T17:03:57.926Z,2.65
2022-08-08T17:06:59.001Z,2.65
2022-08-08T17:10:01.925Z,2.33
2022-08-08T17:13:07.434Z,2.67
2022-08-08T17:19:17.682Z,3.10
2022-08-08T17:22:21.009Z,3.00
2022-08-08T17:25:47.710Z,2.45
2022-08-08T17:28:55.110Z,2.60
2022-08-08T17:31:59.303Z,3.08
2022-08-08T17:35:56.134Z,2.30
2022-08-08T17:38:25.516Z,3.05
2022-08-08T17:41:38.900Z,2.83
2022-08-08T17:44:45.859Z,2.65
2022-08-08T17:47:50.841Z,2.80
2022-08-08T17:50:54.005Z,2.42
2022-08-08T17:53:57.729Z,2.95
2022-08-08T18:03:22.933Z,2.97
2022-08-08T18:06:31.285Z,3.12
2022-08-08T18:09:37.925Z,3.15
2022-08-08T18:12:40.380Z,3.42
2022-08-08T18:15:45.611Z,4.22
2022-08-08T18:19:02.603Z,3.75
2022-08-08T18:22:05.634Z,3.75
2022-08-08T18:25:28.572Z,3.90
2022-08-08T18:28:53.844Z,3.95
2022-08-08T18:31:58.963Z,3.10
2022-08-08T18:35:01.525Z,3.60
2022-08-08T18:38:16.919Z,3.28
2022-08-08T18:41:51.479Z,3.55
2022-08-08T18:44:55.939Z,3.67
2022-08-08T18:47:59.994Z,3.25
2022-08-08T18:51:02.623Z,4.05
2022-08-08T18:54:21.843Z,3.08
2022-08-08T18:57:25.150Z,3.35
2022-08-08T19:00:29.211Z,3.00
2022-08-08T19:04:09.990Z,3.85
2022-08-08T19:06:54.658Z,3.25
2022-08-08T19:10:14.636Z,3.55
2022-08-08T19:13:21.532Z,3.75
2022-08-08T19:16:31.817Z,3.00
2022-08-08T19:19:36.233Z,3.55
2022-08-08T19:22:38.413Z,3.22
2022-08-08T19:26:19.834Z,3.35
2022-08-08T19:29:06.956Z,3.30
2022-08-08T19:32:12.937Z,3.92
2022-08-08T19:35:25.684Z,3.30
2022-08-08T19:38:45.192Z,3.35
2022-08-08T19:41:47.295Z,3.10
2022-08-08T19:44:51.263Z,3.33
2022-08-08T19:47:55.339Z,2.90
2022-08-08T19:51:01.913Z,3.60
2022-08-08T19:54:05.115Z,2.80
2022-08-08T19:57:09.246Z,3.00
2022-08-08T20:00:30.730Z,3.20
2022-08-08T20:04:01.011Z,3.28
2022-08-08T20:06:57.823Z,2.70
2022-08-08T20:10:09.384Z,3.58
2022-08-08T20:14:13.200Z,3.08
2022-08-08T20:16:38.950Z,2.58
2022-08-08T20:19:43.562Z,3.17
2022-08-08T20:22:46.771Z,3.85
2022-08-08T20:25:54.889Z,3.08
2022-08-08T20:28:59.821Z,2.97
2022-08-08T20:32:09.974Z,3.03
2022-08-08T20:35:16.010Z,2.87
2022-08-08T20:38:31.948Z,3.12
2022-08-08T20:41:35.560Z,3.15
2022-08-08T20:44:43.318Z,3.65
2022-08-08T20:47:48.694Z,2.60
2022-08-08T20:51:00.157Z,2.85
2022-08-08T20:54:13.911Z,2.72
2022-08-08T20:57:20.993Z,2.83
2022-08-08T21:00:24.388Z,2.85
2022-08-08T21:03:29.904Z,2.62
2022-08-08T21:06:53.188Z,3.05
2022-08-08T21:10:08.084Z,2.70
2022-08-08T21:13:15.407Z,2.67
2022-08-08T21:16:20.602Z,3.05
2022-08-08T21:19:43.990Z,2.70
2022-08-08T21:22:48.663Z,2.97
2022-08-08T21:25:53.358Z,2.78
2022-08-08T21:29:00.670Z,3.35
2022-08-08T21:32:07.647Z,3.20
2022-08-08T21:36:16.673Z,3.20
2022-08-08T21:38:38.994Z,3.70
2022-08-08T21:41:51.014Z,3.62
2022-08-08T21:44:58.185Z,3.33
2022-08-08T21:48:11.288Z,3.53
2022-08-08T21:54:18.641Z,3.37
2022-08-08T21:55:02.005Z,2.80
2022-08-08T21:58:09.503Z,3.20
2022-08-08T22:01:27.773Z,3.15
2022-08-08T22:04:38.245Z,2.45
2022-08-08T22:07:41.479Z,4.10
2022-08-08T22:10:45.317Z,2.70
2022-08-08T22:13:51.543Z,3.05
2022-08-08T22:16:54.702Z,3.12
2022-08-08T22:20:13.120Z,3.12
2022-08-08T22:23:19.608Z,2.50
2022-08-08T22:26:28.711Z,2.87
2022-08-08T22:29:59.334Z,3.10
2022-08-08T22:32:55.734Z,2.62
2022-08-08T22:36:04.117Z,2.55
2022-08-08T22:39:19.086Z,3.70
2022-08-08T22:42:27.190Z,3.08
2022-08-08T22:45:33.645Z,2.83
2022-08-08T22:48:37.743Z,2.78
2022-08-08T22:51:42.763Z,3.15
2022-08-08T22:54:53.879Z,3.65
2022-08-08T22:57:58.565Z,3.35
2022-08-08T23:01:30.182Z,2.65
2022-08-08T23:04:32.500Z,3.45
2022-08-08T23:07:51.276Z,3.70
2022-08-08T23:11:01.045Z,2.90
2022-08-08T23:14:11.579Z,3.50
2022-08-08T23:17:16.775Z,3.40
2022-08-08T23:20:19.770Z,3.10
2022-08-08T23:23:22.082Z,3.03
2022-08-08T23:26:25.413Z,3.53
2022-08-08T23:29:31.176Z,3.78
2022-08-08T23:32:34.358Z,3.15
2022-08-08T23:35:59.011Z,3.10
2022-08-08T23:38:59.061Z,3.50
2022-08-08T23:42:02.802Z,3.83
2022-08-08T23:45:06.138Z,3.28
2022-08-08T23:49:03.603Z,3.85
2022-08-08T23:51:42.630Z,3.95
2022-08-08T23:55:07.412Z,3.37
2022-08-08T23:58:37.683Z,3.03
